createdAt,value
2018-04-01T00:02:26.325Z,1.90
2018-04-01T00:04:52.553Z,1.90
2018-04-01T00:07:18.737Z,2.00
2018-04-01T00:09:45.676Z,2.00
2018-04-01T00:12:15.056Z,1.90
2018-04-01T00:14:41.266Z,2.00
2018-04-01T00:17:07.492Z,1.90
2018-04-01T00:19:33.698Z,1.90
2018-04-01T00:22:00.678Z,1.90
2018-04-01T00:24:27.630Z,1.90
2018-04-01T00:26:54.566Z,1.90
2018-04-01T00:29:20.769Z,1.90
2018-04-01T00:31:46.991Z,1.90
2018-04-01T00:34:13.203Z,1.90
2018-04-01T00:36:39.416Z,1.90
2018-04-01T00:39:09.093Z,1.90
2018-04-01T00:41:35.302Z,1.90
2018-04-01T00:44:01.470Z,1.90
2018-04-01T00:46:27.666Z,1.90
2018-04-01T00:48:53.897Z,2.00
2018-04-01T00:51:20.133Z,2.00
2018-04-01T00:53:46.347Z,2.00
2018-04-01T00:56:13.307Z,2.00
2018-04-01T00:58:40.245Z,1.90
2018-04-01T01:01:06.441Z,1.90
2018-04-01T01:03:32.631Z,1.90
2018-04-01T01:05:58.823Z,2.00
2018-04-01T01:08:25.773Z,2.00
2018-04-01T01:10:52.090Z,2.00
2018-04-01T01:13:18.285Z,2.00
2018-04-01T01:15:44.466Z,2.00
2018-04-01T01:18:10.666Z,2.00
2018-04-01T01:20:36.864Z,1.90
2018-04-01T01:23:03.052Z,2.00
2018-04-01T01:25:29.254Z,2.00
2018-04-01T01:27:55.458Z,2.00
2018-04-01T01:30:21.650Z,2.10
2018-04-01T01:32:48.584Z,2.00
2018-04-01T01:35:14.807Z,2.00
2018-04-01T01:37:41.025Z,2.10
2018-04-01T01:40:07.972Z,2.10
2018-04-01T01:42:34.147Z,2.00
2018-04-01T01:45:03.897Z,2.10
2018-04-01T01:47:30.099Z,2.10
2018-04-01T01:49:56.301Z,2.10
2018-04-01T01:52:22.523Z,2.10
2018-04-01T01:54:53.217Z,2.10
2018-04-01T01:57:19.438Z,2.10
2018-04-01T01:59:45.657Z,2.20
2018-04-01T02:02:11.847Z,2.20
2018-04-01T02:04:38.058Z,2.20
2018-04-01T02:07:05.030Z,2.10
2018-04-01T02:09:31.305Z,2.10
2018-04-01T02:11:57.560Z,2.20
2018-04-01T02:14:23.778Z,2.20
2018-04-01T02:16:49.969Z,2.10
2018-04-01T02:19:16.214Z,2.10
2018-04-01T02:21:42.555Z,2.10
2018-04-01T02:24:09.216Z,2.10
2018-04-01T02:26:36.156Z,2.10
2018-04-01T02:29:03.120Z,2.10
2018-04-01T02:31:30.147Z,2.10
2018-04-01T02:33:56.274Z,2.10
2018-04-01T02:36:23.834Z,2.10
2018-04-01T02:38:50.039Z,2.10
2018-04-01T02:41:17.024Z,2.10
2018-04-01T02:43:44.256Z,2.10
2018-04-01T02:46:10.501Z,2.10
2018-04-01T02:48:36.718Z,2.10
2018-04-01T02:51:02.928Z,2.10
2018-04-01T02:53:29.144Z,2.10
2018-04-01T02:55:56.097Z,2.20
2018-04-01T02:58:23.037Z,2.20
2018-04-01T03:00:49.273Z,2.10
2018-04-01T03:03:15.473Z,2.20
2018-04-01T03:05:42.425Z,2.20
2018-04-01T03:08:09.414Z,2.20
2018-04-01T03:10:35.631Z,2.20
2018-04-01T03:13:01.908Z,2.20
2018-04-01T03:15:28.850Z,2.20
2018-04-01T03:17:55.056Z,2.20
2018-04-01T03:20:21.296Z,2.20
2018-04-01T03:22:47.542Z,2.20
2018-04-01T03:25:14.488Z,2.20
2018-04-01T03:27:40.697Z,2.20
2018-04-01T03:30:06.918Z,2.30
2018-04-01T03:32:33.122Z,2.30
2018-04-01T03:35:00.116Z,2.30
2018-04-01T03:37:27.090Z,2.30
2018-04-01T03:39:54.168Z,2.40
2018-04-01T03:42:21.131Z,2.40
2018-04-01T03:44:48.087Z,2.40
2018-04-01T03:47:15.038Z,2.40
2018-04-01T03:49:41.241Z,2.40
2018-04-01T03:52:07.508Z,2.40
2018-04-01T03:54:33.718Z,2.40
2018-04-01T03:57:00.797Z,2.30
2018-04-01T03:59:27.003Z,2.30
2018-04-01T04:01:53.211Z,2.30
2018-04-01T04:04:19.396Z,2.30
2018-04-01T04:06:45.666Z,2.40
2018-04-01T04:09:11.870Z,2.40
2018-04-01T04:11:38.155Z,2.40
2018-04-01T04:14:04.352Z,2.40
2018-04-01T04:16:31.288Z,2.30
2018-04-01T04:18:57.490Z,2.30
2018-04-01T04:21:23.720Z,2.30
2018-04-01T04:23:50.681Z,2.40
2018-04-01T04:26:17.659Z,2.40
2018-04-01T04:28:43.878Z,2.30
2018-04-01T04:31:11.556Z,2.30
2018-04-01T04:33:37.770Z,2.40
2018-04-01T04:36:03.969Z,2.40
2018-04-01T04:38:30.161Z,2.40
2018-04-01T04:40:56.360Z,2.30
2018-04-01T04:43:23.287Z,2.30
2018-04-01T04:45:49.481Z,2.40
2018-04-01T04:48:16.928Z,2.40
2018-04-01T04:50:43.120Z,2.40
2018-04-01T04:53:10.058Z,2.40
2018-04-01T04:55:36.352Z,2.30
2018-04-01T04:58:03.323Z,2.30
2018-04-01T05:00:30.262Z,2.40
2018-04-01T05:02:56.470Z,2.30
2018-04-01T05:05:22.691Z,2.40
2018-04-01T05:07:48.880Z,2.40
2018-04-01T05:10:15.078Z,2.40
2018-04-01T05:12:42.030Z,2.30
2018-04-01T05:15:08.302Z,2.30
2018-04-01T05:17:35.251Z,2.30
2018-04-01T05:20:02.080Z,2.30
2018-04-01T05:22:28.342Z,2.30
2018-04-01T05:24:54.567Z,2.20
2018-04-01T05:27:20.769Z,2.20
2018-04-01T05:29:46.964Z,2.30
2018-04-01T05:32:13.335Z,2.20
2018-04-01T05:34:39.558Z,2.20
2018-04-01T05:37:05.808Z,2.30
2018-04-01T05:39:32.749Z,2.20
2018-04-01T05:41:58.932Z,2.20
2018-04-01T05:44:25.161Z,2.20
2018-04-01T05:46:52.146Z,2.30
2018-04-01T05:49:18.393Z,2.20
2018-04-01T05:51:45.341Z,2.30
2018-04-01T05:54:11.554Z,2.30
2018-04-01T05:56:37.790Z,2.30
2018-04-01T05:59:04.029Z,2.30
2018-04-01T06:01:30.226Z,2.30
2018-04-01T06:03:56.621Z,2.30
2018-04-01T06:06:22.833Z,2.30
2018-04-01T06:08:49.079Z,2.30
2018-04-01T06:11:15.387Z,2.30
2018-04-01T06:13:41.601Z,2.30
2018-04-01T06:16:07.835Z,2.30
2018-04-01T06:18:34.055Z,2.20
2018-04-01T06:21:00.268Z,2.20
2018-04-01T06:23:27.211Z,2.20
2018-04-01T06:25:53.403Z,2.20
2018-04-01T06:28:19.621Z,2.20
2018-04-01T06:31:50.214Z,2.20
2018-04-01T06:34:17.328Z,2.20
2018-04-01T06:36:43.524Z,2.20
2018-04-01T06:39:09.740Z,2.30
2018-04-01T06:41:35.990Z,2.20
2018-04-01T06:44:02.220Z,2.30
2018-04-01T06:46:28.937Z,2.20
2018-04-01T06:48:55.166Z,2.20
2018-04-01T06:51:22.043Z,2.20
2018-04-01T06:53:48.307Z,2.20
2018-04-01T06:56:14.539Z,2.20
2018-04-01T06:58:40.795Z,2.20
2018-04-01T07:01:07.013Z,2.30
2018-04-01T07:03:33.206Z,2.30
2018-04-01T07:05:59.432Z,2.40
2018-04-01T07:08:25.644Z,2.40
2018-04-01T07:10:52.620Z,2.60
2018-04-01T07:13:18.832Z,2.50
2018-04-01T07:15:45.065Z,2.60
2018-04-01T07:18:11.296Z,2.70
2018-04-01T07:20:37.527Z,2.70
2018-04-01T07:23:03.794Z,2.70
2018-04-01T07:25:30.130Z,2.70
2018-04-01T07:27:57.067Z,2.80
2018-04-01T07:30:23.246Z,2.80
2018-04-01T07:32:49.490Z,2.80
2018-04-01T07:35:16.417Z,2.80
2018-04-01T07:37:43.365Z,2.90
2018-04-01T07:40:09.601Z,2.90
2018-04-01T07:42:35.811Z,2.90
2018-04-01T07:45:03.585Z,2.90
2018-04-01T07:47:30.379Z,2.90
2018-04-01T07:49:56.605Z,2.90
2018-04-01T07:52:23.576Z,3.00
2018-04-01T07:54:49.773Z,3.00
2018-04-01T07:57:16.002Z,3.10
2018-04-01T07:59:43.215Z,3.10
2018-04-01T08:02:09.415Z,3.20
2018-04-01T08:04:36.371Z,3.40
2018-04-01T08:07:03.343Z,3.50
2018-04-01T08:09:29.552Z,3.50
2018-04-01T08:11:55.772Z,3.60
2018-04-01T08:14:21.980Z,3.70
2018-04-01T08:16:48.958Z,3.90
2018-04-01T08:19:15.252Z,3.80
2018-04-01T08:21:41.478Z,4.00
2018-04-01T08:24:08.900Z,4.20
2018-04-01T08:26:35.215Z,4.10
2018-04-01T08:29:01.428Z,4.20
2018-04-01T08:31:27.651Z,4.40
2018-04-01T08:33:54.019Z,4.40
2018-04-01T08:36:20.431Z,4.40
2018-04-01T08:38:46.683Z,4.40
2018-04-01T08:41:12.904Z,4.40
2018-04-01T08:43:39.179Z,4.50
2018-04-01T08:46:05.415Z,4.80
2018-04-01T08:48:32.370Z,4.90
2018-04-01T08:50:59.318Z,4.90
2018-04-01T08:53:25.504Z,4.90
2018-04-01T08:55:52.480Z,4.80
2018-04-01T08:58:19.560Z,4.90
2018-04-01T09:00:45.763Z,4.80
2018-04-01T09:03:11.996Z,4.90
2018-04-01T09:05:39.022Z,5.10
2018-04-01T09:08:06.090Z,5.20
2018-04-01T09:10:32.375Z,5.20
2018-04-01T09:12:58.595Z,5.50
2018-04-01T09:15:24.828Z,5.80
2018-04-01T09:17:51.059Z,5.90
2018-04-01T09:20:17.301Z,5.80
2018-04-01T09:22:43.600Z,5.80
2018-04-01T09:25:10.553Z,5.80
2018-04-01T09:27:37.607Z,5.90
2018-04-01T09:30:03.993Z,5.90
2018-04-01T09:32:33.519Z,5.90
2018-04-01T09:35:00.465Z,5.80
2018-04-01T09:37:26.877Z,5.80
2018-04-01T09:39:53.093Z,5.80
2018-04-01T09:42:19.312Z,5.80
2018-04-01T09:44:46.632Z,5.80
2018-04-01T09:47:12.835Z,5.90
2018-04-01T09:49:39.103Z,6.00
2018-04-01T09:52:06.078Z,6.30
2018-04-01T09:54:37.253Z,6.40
2018-04-01T09:57:03.604Z,6.40
2018-04-01T09:59:30.674Z,6.40
2018-04-01T10:01:59.730Z,6.40
2018-04-01T10:04:26.349Z,6.40
2018-04-01T10:06:53.608Z,6.60
2018-04-01T10:09:21.021Z,6.60
2018-04-01T10:11:47.558Z,6.60
2018-04-01T10:14:13.978Z,6.60
2018-04-01T10:16:40.407Z,6.60
2018-04-01T10:19:06.927Z,6.60
2018-04-01T10:21:34.201Z,6.50
2018-04-01T10:24:01.386Z,6.50
2018-04-01T10:26:27.844Z,6.50
2018-04-01T10:28:57.845Z,6.40
2018-04-01T10:31:48.494Z,6.30
2018-04-01T10:34:15.497Z,6.30
2018-04-01T10:36:41.994Z,6.30
2018-04-01T10:39:12.113Z,6.20
2018-04-01T10:41:39.286Z,6.30
2018-04-01T10:44:06.983Z,6.50
2018-04-01T10:46:33.450Z,6.50
2018-04-01T10:48:59.885Z,6.60
2018-04-01T10:51:27.074Z,6.90
2018-04-01T10:53:56.205Z,6.90
2018-04-01T10:56:22.533Z,6.90
2018-04-01T10:58:48.824Z,6.80
2018-04-01T11:01:15.050Z,6.70
2018-04-01T11:03:41.392Z,6.50
2018-04-01T11:06:07.746Z,6.40
2018-04-01T11:08:33.947Z,6.30
2018-04-01T11:11:00.180Z,6.30
2018-04-01T11:13:26.405Z,6.20
2018-04-01T11:15:52.755Z,6.10
2018-04-01T11:18:19.529Z,6.10
2018-04-01T11:20:45.867Z,6.00
2018-04-01T11:23:12.137Z,5.90
2018-04-01T11:25:38.391Z,5.90
2018-04-01T11:28:04.624Z,5.80
2018-04-01T11:30:30.928Z,5.70
2018-04-01T11:32:57.285Z,5.70
2018-04-01T11:35:23.685Z,5.60
2018-04-01T11:37:51.061Z,5.50
2018-04-01T11:40:19.869Z,5.50
2018-04-01T11:42:47.410Z,5.40
2018-04-01T11:45:14.726Z,5.50
2018-04-01T11:47:41.550Z,5.60
2018-04-01T11:50:07.800Z,5.60
2018-04-01T11:52:34.400Z,5.60
2018-04-01T11:55:01.384Z,5.50
2018-04-01T11:57:27.725Z,5.50
2018-04-01T11:59:54.020Z,5.50
2018-04-01T12:02:20.229Z,5.50
2018-04-01T12:04:46.454Z,5.50
2018-04-01T12:07:12.728Z,5.50
2018-04-01T12:09:39.190Z,5.40
2018-04-01T12:12:05.651Z,5.40
2018-04-01T12:14:32.999Z,5.40
2018-04-01T12:17:00.228Z,5.20
2018-04-01T12:19:27.482Z,5.20
2018-04-01T12:21:54.132Z,5.20
2018-04-01T12:24:20.406Z,5.30
2018-04-01T12:26:47.038Z,5.30
2018-04-01T12:29:15.953Z,5.40
2018-04-01T12:31:42.278Z,5.40
2018-04-01T12:34:09.283Z,5.40
2018-04-01T12:36:35.523Z,5.40
2018-04-01T12:39:02.392Z,5.40
2018-04-01T12:41:29.090Z,5.40
2018-04-01T12:43:55.564Z,5.40
2018-04-01T12:46:22.166Z,5.40
2018-04-01T12:48:48.621Z,5.50
2018-04-01T12:51:14.841Z,5.60
2018-04-01T12:53:41.074Z,5.60
2018-04-01T12:56:07.316Z,5.80
2018-04-01T12:58:33.631Z,6.00
2018-04-01T13:00:59.901Z,6.10
2018-04-01T13:03:26.202Z,6.10
2018-04-01T13:05:52.905Z,6.10
2018-04-01T13:08:20.992Z,6.00
2018-04-01T13:10:47.269Z,6.00
2018-04-01T13:13:13.535Z,6.00
2018-04-01T13:15:39.853Z,6.00
2018-04-01T13:18:06.113Z,6.10
2018-04-01T13:20:33.408Z,6.10
2018-04-01T13:23:02.079Z,6.10
2018-04-01T13:25:28.661Z,6.10
2018-04-01T13:27:56.020Z,6.10
2018-04-01T13:30:22.292Z,6.10
2018-04-01T13:32:48.519Z,6.20
2018-04-01T13:35:15.594Z,6.30
2018-04-01T13:37:41.838Z,6.30
2018-04-01T13:40:08.298Z,6.40
2018-04-01T13:42:34.560Z,6.40
2018-04-01T13:45:00.805Z,6.40
2018-04-01T13:47:27.151Z,6.40
2018-04-01T13:49:54.222Z,6.50
2018-04-01T13:52:20.916Z,6.50
2018-04-01T13:54:47.347Z,6.50
2018-04-01T13:57:13.623Z,6.60
2018-04-01T13:59:39.897Z,6.60
2018-04-01T14:02:06.881Z,6.70
2018-04-01T14:04:33.883Z,6.80
2018-04-01T14:07:00.828Z,6.80
2018-04-01T14:09:27.057Z,6.80
2018-04-01T14:11:53.353Z,6.70
2018-04-01T14:14:19.604Z,6.70
2018-04-01T14:16:46.531Z,6.90
2018-04-01T14:19:12.807Z,6.80
2018-04-01T14:21:43.629Z,6.90
2018-04-01T14:24:09.842Z,6.90
2018-04-01T14:26:36.096Z,6.90
2018-04-01T14:29:02.360Z,6.90
2018-04-01T14:31:28.612Z,6.90
2018-04-01T14:33:54.930Z,6.90
2018-04-01T14:36:22.383Z,7.00
2018-04-01T14:38:48.644Z,7.00
2018-04-01T14:41:14.890Z,7.00
2018-04-01T14:43:41.848Z,7.10
2018-04-01T14:46:08.912Z,6.90
2018-04-01T14:48:35.253Z,7.00
2018-04-01T14:51:01.473Z,6.80
2018-04-01T14:53:27.786Z,6.80
2018-04-01T14:55:58.450Z,6.70
2018-04-01T14:58:24.729Z,6.70
2018-04-01T15:00:51.715Z,6.70
2018-04-01T15:03:18.039Z,6.70
2018-04-01T15:05:44.291Z,6.70
2018-04-01T15:08:10.641Z,6.60
2018-04-01T15:10:36.927Z,6.60
2018-04-01T15:13:03.183Z,6.70
2018-04-01T15:15:30.380Z,6.80
2018-04-01T15:17:56.730Z,6.80
2018-04-01T15:20:23.044Z,6.90
2018-04-01T15:22:49.337Z,6.80
2018-04-01T15:25:16.756Z,6.70
2018-04-01T15:27:43.018Z,6.60
2018-04-01T15:30:09.320Z,6.50
2018-04-01T15:32:36.434Z,6.40
2018-04-01T15:35:03.011Z,6.40
2018-04-01T15:37:29.240Z,6.30
2018-04-01T15:39:55.634Z,6.30
2018-04-01T15:42:23.875Z,6.20
2018-04-01T15:44:50.113Z,6.20
2018-04-01T15:47:17.115Z,6.20
2018-04-01T15:49:43.361Z,6.20
2018-04-01T15:52:10.400Z,6.10
2018-04-01T15:54:36.597Z,6.20
2018-04-01T15:57:02.941Z,6.10
2018-04-01T15:59:30.436Z,6.00
2018-04-01T16:01:56.687Z,5.90
2018-04-01T16:04:22.986Z,5.80
2018-04-01T16:06:49.429Z,5.70
2018-04-01T16:09:22.790Z,5.60
2018-04-01T16:11:49.055Z,5.50
2018-04-01T16:14:15.304Z,5.50
2018-04-01T16:16:41.556Z,5.40
2018-04-01T16:19:07.913Z,5.40
2018-04-01T16:21:34.167Z,5.30
2018-04-01T16:24:00.489Z,5.20
2018-04-01T16:26:26.769Z,5.20
2018-04-01T16:28:53.212Z,5.20
2018-04-01T16:31:19.505Z,5.10
2018-04-01T16:33:46.045Z,5.00
2018-04-01T16:36:12.474Z,4.90
2018-04-01T16:38:38.890Z,4.90
2018-04-01T16:41:05.901Z,4.70
2018-04-01T16:43:33.278Z,4.70
2018-04-01T16:45:59.514Z,4.60
2018-04-01T16:48:26.525Z,4.50
2018-04-01T16:50:52.780Z,4.50
2018-04-01T16:53:19.063Z,4.50
2018-04-01T16:55:46.083Z,4.40
2018-04-01T16:58:12.426Z,4.40
2018-04-01T17:00:38.710Z,4.30
2018-04-01T17:03:05.724Z,4.10
2018-04-01T17:05:31.975Z,4.10
2018-04-01T17:07:59.102Z,4.00
2018-04-01T17:10:26.406Z,4.00
2018-04-01T17:12:53.206Z,3.90
2018-04-01T17:15:19.503Z,3.90
2018-04-01T17:17:46.471Z,3.90
2018-04-01T17:20:13.599Z,3.90
2018-04-01T17:22:40.028Z,3.90
2018-04-01T17:25:06.313Z,3.90
2018-04-01T17:27:32.618Z,3.80
2018-04-01T17:29:59.623Z,3.80
2018-04-01T17:32:26.520Z,3.80
2018-04-01T17:34:52.842Z,3.80
2018-04-01T17:37:19.829Z,3.80
2018-04-01T17:39:46.169Z,3.80
2018-04-01T17:42:12.525Z,3.80
2018-04-01T17:44:38.821Z,3.80
2018-04-01T17:47:05.334Z,3.80
2018-04-01T17:49:31.758Z,3.80
2018-04-01T17:51:58.106Z,3.80
2018-04-01T17:54:26.050Z,3.80
2018-04-01T17:56:52.497Z,3.80
2018-04-01T17:59:18.819Z,3.80
2018-04-01T18:01:45.842Z,3.80
2018-04-01T18:04:13.610Z,3.80
2018-04-01T18:06:40.187Z,3.80
2018-04-01T18:09:06.611Z,3.90
2018-04-01T18:11:33.199Z,3.90
2018-04-01T18:13:59.830Z,3.90
2018-04-01T18:16:26.390Z,3.90
2018-04-01T18:18:52.750Z,3.90
2018-04-01T18:21:19.437Z,3.90
2018-04-01T18:23:45.858Z,3.90
2018-04-01T18:26:12.255Z,3.90
2018-04-01T18:28:38.667Z,3.90
2018-04-01T18:31:05.737Z,3.90
2018-04-01T18:33:32.723Z,3.90
2018-04-01T18:35:59.017Z,3.90
2018-04-01T18:38:25.415Z,3.90
2018-04-01T18:40:52.735Z,3.90
2018-04-01T18:43:19.047Z,3.80
2018-04-01T18:45:45.400Z,3.80
2018-04-01T18:48:11.648Z,3.80
2018-04-01T18:50:37.985Z,3.80
2018-04-01T18:53:05.074Z,3.80
2018-04-01T18:55:32.122Z,3.80
2018-04-01T18:57:59.054Z,3.80
2018-04-01T19:00:25.364Z,3.80
2018-04-01T19:02:52.208Z,3.80
2018-04-01T19:05:18.473Z,3.70
2018-04-01T19:07:44.715Z,3.70
2018-04-01T19:10:11.085Z,3.70
2018-04-01T19:12:37.320Z,3.70
2018-04-01T19:15:04.291Z,3.60
2018-04-01T19:17:31.643Z,3.60
2018-04-01T19:19:58.241Z,3.60
2018-04-01T19:22:25.847Z,3.60
2018-04-01T19:24:53.201Z,3.50
2018-04-01T19:27:19.965Z,3.50
2018-04-01T19:29:47.367Z,3.50
2018-04-01T19:32:14.923Z,3.40
2018-04-01T19:34:43.758Z,3.40
2018-04-01T19:37:11.003Z,3.40
2018-04-01T19:39:38.144Z,3.40
2018-04-01T19:42:05.887Z,3.30
2018-04-01T19:44:32.384Z,3.30
2018-04-01T19:46:59.698Z,3.40
2018-04-01T19:49:26.285Z,3.30
2018-04-01T19:51:52.798Z,3.30
2018-04-01T19:54:20.029Z,3.30
2018-04-01T19:56:46.642Z,3.30
2018-04-01T19:59:13.917Z,3.40
2018-04-01T20:01:40.486Z,3.30
2018-04-01T20:04:08.162Z,3.40
2018-04-01T20:06:35.581Z,3.40
2018-04-01T20:09:04.612Z,3.40
2018-04-01T20:11:33.362Z,3.40
2018-04-01T20:14:01.790Z,3.40
2018-04-01T20:16:29.862Z,3.30
2018-04-01T20:19:00.298Z,3.20
2018-04-01T20:21:30.411Z,3.10
2018-04-01T20:23:58.300Z,3.00
2018-04-01T20:26:25.597Z,2.90
2018-04-01T20:29:08.995Z,2.90
2018-04-01T20:31:36.489Z,2.90
2018-04-01T20:34:03.163Z,2.80
2018-04-01T20:36:31.257Z,2.80
2018-04-01T20:38:59.421Z,2.80
2018-04-01T20:41:27.088Z,2.80
2018-04-01T20:43:54.495Z,2.80
2018-04-01T20:46:22.750Z,2.80
2018-04-01T20:48:49.440Z,2.80
2018-04-01T20:51:25.750Z,2.80
2018-04-01T20:53:53.214Z,2.80
2018-04-01T20:56:20.224Z,2.80
2018-04-01T20:58:47.774Z,2.80
2018-04-01T21:01:14.711Z,2.80
2018-04-01T21:03:41.873Z,2.80
2018-04-01T21:06:08.528Z,2.80
2018-04-01T21:08:39.472Z,2.80
2018-04-01T21:11:07.825Z,2.70
2018-04-01T21:13:35.154Z,2.70
2018-04-01T21:16:02.812Z,2.70
2018-04-01T21:18:47.543Z,2.70
2018-04-01T21:21:14.288Z,2.70
2018-04-01T21:23:41.879Z,2.80
2018-04-01T21:26:09.274Z,2.80
2018-04-01T21:28:36.387Z,2.80
2018-04-01T21:31:03.208Z,2.80
2018-04-01T21:33:31.087Z,2.80
2018-04-01T21:36:05.182Z,2.80
2018-04-01T21:38:32.342Z,2.80
2018-04-01T21:40:59.100Z,2.80
2018-04-01T21:43:26.346Z,2.70
2018-04-01T21:45:56.635Z,2.70
2018-04-01T21:48:24.172Z,2.70
2018-04-01T21:50:51.398Z,2.70
2018-04-01T21:53:18.603Z,2.70
2018-04-01T21:55:46.837Z,2.70
2018-04-01T21:58:49.139Z,2.60
2018-04-01T22:01:17.681Z,2.60
2018-04-01T22:03:48.111Z,2.60
2018-04-01T22:06:14.663Z,2.70
2018-04-01T22:08:41.818Z,2.70
2018-04-01T22:11:09.074Z,2.70
2018-04-01T22:13:35.621Z,2.70
2018-04-01T22:16:02.344Z,2.70
2018-04-01T22:21:07.930Z,2.70
2018-04-01T22:23:34.338Z,2.60
2018-04-01T22:26:00.840Z,2.60
2018-04-01T22:28:27.362Z,2.60
2018-04-01T22:30:54.193Z,2.50
2018-04-01T22:33:21.456Z,2.50
2018-04-01T22:35:48.054Z,2.50
2018-04-01T22:38:14.463Z,2.50
2018-04-01T22:40:54.905Z,2.50
2018-04-01T22:43:22.050Z,2.50
2018-04-01T22:45:48.474Z,2.50
2018-04-01T22:48:14.676Z,2.50
2018-04-01T22:50:40.853Z,2.40
2018-04-01T22:53:07.016Z,2.40
2018-04-01T22:55:33.202Z,2.40
2018-04-01T22:57:59.385Z,2.40
2018-04-01T23:00:25.565Z,2.40
2018-04-01T23:02:51.761Z,2.40
2018-04-01T23:05:18.679Z,2.30
2018-04-01T23:07:44.899Z,2.30
2018-04-01T23:10:11.147Z,2.20
2018-04-01T23:12:38.058Z,2.10
2018-04-01T23:15:04.256Z,2.10
2018-04-01T23:17:30.424Z,2.10
2018-04-01T23:19:56.657Z,2.00
2018-04-01T23:22:23.564Z,1.80
2018-04-01T23:24:49.759Z,1.80
2018-04-01T23:27:15.904Z,1.70
2018-04-01T23:29:42.073Z,1.70
2018-04-01T23:32:08.294Z,1.60
2018-04-01T23:34:34.492Z,1.50
2018-04-01T23:37:00.702Z,1.40
2018-04-01T23:39:26.884Z,1.30
2018-04-01T23:41:53.054Z,1.20
2018-04-01T23:44:19.470Z,1.20
2018-04-01T23:46:45.668Z,1.10
2018-04-01T23:49:11.850Z,1.10
2018-04-01T23:51:38.003Z,1.10
2018-04-01T23:54:04.184Z,1.20
2018-04-01T23:56:30.364Z,1.30
2018-04-01T23:58:56.549Z,1.40
